Custer Park, Illinois
Current Conditions -  °F | °C
As of 1:55 PM on Monday 24 Nov 2014 (Local Time) from KJOT Reporting Station
Light Snow Light Snow  
Wind Chill: -7°   Ceiling: 1000
Heat Index: -1°   Visibility: 3mi
Dew Point: -2°   Wind: 15mph
Humidity: 90%   Direction: 250°WSW
Pressure: 29.5"   Gusts: 25mph
Location:  41.3199°N, 88.0518°W
Report Text: KJOT 241955Z AUTO 25013G22KT 3SM -SN BKN010 OVC018 M01/M02 A2950 RMK AO2 T10061020
Loading
Personal Weather Stations






























Interactive Weather Map New forecast layout! Learn more

10-Day Weather Forecast

Advertisements
Track Severe Weather on mobile